createdAt,value
2019-05-16T00:02:14.191Z,10.45
2019-05-16T00:04:48.355Z,10.46
2019-05-16T00:07:19.326Z,10.43
2019-05-16T00:09:49.023Z,10.40
2019-05-16T00:12:18.659Z,10.34
2019-05-16T00:14:49.534Z,10.33
2019-05-16T00:17:20.027Z,10.24
2019-05-16T00:19:49.617Z,10.15
2019-05-16T00:22:19.024Z,10.10
2019-05-16T00:24:49.489Z,10.04
2019-05-16T00:27:19.057Z,9.98
2019-05-16T00:29:48.857Z,9.98
2019-05-16T00:32:19.065Z,9.96
2019-05-16T00:34:49.091Z,9.90
2019-05-16T00:37:18.513Z,9.90
2019-05-16T00:39:48.623Z,9.88
2019-05-16T00:42:18.450Z,9.88
2019-05-16T00:44:48.167Z,9.91
2019-05-16T00:47:17.994Z,9.89
2019-05-16T00:49:48.115Z,9.90
2019-05-16T00:52:20.063Z,9.92
2019-05-16T00:54:50.520Z,9.90
2019-05-16T00:57:23.181Z,9.92
2019-05-16T00:59:55.780Z,9.92
2019-05-16T01:02:25.299Z,9.92
2019-05-16T01:04:55.042Z,9.91
2019-05-16T01:07:24.380Z,9.94
2019-05-16T01:09:53.912Z,10.00
2019-05-16T01:12:23.956Z,9.98
2019-05-16T01:14:53.438Z,10.01
2019-05-16T01:17:22.860Z,10.00
2019-05-16T01:19:52.531Z,9.99
2019-05-16T01:22:22.179Z,9.98
2019-05-16T01:24:51.885Z,10.02
2019-05-16T01:27:21.346Z,10.04
2019-05-16T01:29:50.708Z,10.03
2019-05-16T01:32:20.100Z,10.08
2019-05-16T01:34:50.661Z,10.11
2019-05-16T01:37:20.305Z,10.17
2019-05-16T01:39:49.869Z,10.18
2019-05-16T01:42:19.288Z,10.21
2019-05-16T01:44:49.076Z,10.25
2019-05-16T01:47:18.624Z,10.29
2019-05-16T01:49:48.801Z,10.35
2019-05-16T01:52:19.020Z,10.41
2019-05-16T01:54:48.496Z,10.44
2019-05-16T01:57:18.213Z,10.42
2019-05-16T01:59:48.553Z,10.45
2019-05-16T02:02:19.299Z,10.51
2019-05-16T02:04:48.741Z,10.54
2019-05-16T02:07:18.992Z,10.56
2019-05-16T02:09:48.617Z,10.61
2019-05-16T02:12:18.542Z,10.61
2019-05-16T02:14:49.535Z,10.70
2019-05-16T02:17:18.903Z,10.75
2019-05-16T02:19:48.516Z,10.81
2019-05-16T02:22:18.267Z,10.81
2019-05-16T02:24:48.008Z,10.87
2019-05-16T02:27:18.331Z,10.89
2019-05-16T02:29:47.924Z,10.90
2019-05-16T02:32:17.166Z,10.98
2019-05-16T02:34:46.283Z,11.10
2019-05-16T02:37:24.213Z,11.06
2019-05-16T02:39:47.630Z,11.06
2019-05-16T02:42:16.758Z,11.08
2019-05-16T02:44:46.256Z,11.08
2019-05-16T02:47:15.325Z,11.07
2019-05-16T02:49:44.789Z,10.92
2019-05-16T02:52:13.994Z,10.84
2019-05-16T02:54:43.521Z,10.84
2019-05-16T02:57:12.973Z,10.76
2019-05-16T02:59:42.577Z,10.70
2019-05-16T03:02:11.837Z,10.67
2019-05-16T03:04:44.305Z,10.67
2019-05-16T03:07:32.890Z,10.66
2019-05-16T03:09:45.291Z,10.67
2019-05-16T03:12:15.043Z,10.63
2019-05-16T03:14:44.571Z,10.64
2019-05-16T03:17:14.795Z,10.61
2019-05-16T03:19:45.416Z,10.55
2019-05-16T03:22:21.651Z,10.59
2019-05-16T03:24:51.531Z,10.57
2019-05-16T03:27:21.586Z,10.61
2019-05-16T03:29:50.910Z,10.64
2019-05-16T03:32:24.408Z,10.64
2019-05-16T03:37:30.811Z,10.72
2019-05-16T03:40:00.836Z,10.70
2019-05-16T03:42:31.149Z,10.70
2019-05-16T03:45:02.144Z,10.75
2019-05-16T03:47:32.063Z,10.79
2019-05-16T03:50:01.947Z,10.83
2019-05-16T03:52:31.536Z,10.91
2019-05-16T03:55:02.251Z,10.91
2019-05-16T03:57:31.832Z,10.98
2019-05-16T04:00:01.725Z,10.98
2019-05-16T04:02:31.454Z,11.03
2019-05-16T04:05:01.801Z,11.10
2019-05-16T04:07:32.075Z,11.16
2019-05-16T04:10:02.441Z,11.24
2019-05-16T04:12:33.299Z,11.28
2019-05-16T04:15:02.948Z,11.38
2019-05-16T04:17:32.582Z,11.40
2019-05-16T04:20:02.494Z,11.44
2019-05-16T04:22:32.428Z,11.50
2019-05-16T04:25:02.270Z,11.54
2019-05-16T04:27:31.612Z,11.65
2019-05-16T04:30:01.945Z,11.69
2019-05-16T04:32:33.312Z,11.69
2019-05-16T04:35:02.903Z,11.79
2019-05-16T04:37:32.598Z,11.79
2019-05-16T04:40:02.183Z,11.84
2019-05-16T04:42:31.575Z,11.89
2019-05-16T04:45:01.394Z,12.11
2019-05-16T04:47:31.901Z,12.11
2019-05-16T04:50:02.032Z,12.28
2019-05-16T04:52:31.853Z,12.65
2019-05-16T04:55:01.251Z,12.65
2019-05-16T04:57:31.472Z,12.89
2019-05-16T05:00:02.314Z,12.89
2019-05-16T05:02:33.644Z,12.98
2019-05-16T05:05:03.644Z,13.11
2019-05-16T05:07:32.923Z,13.24
2019-05-16T05:10:02.560Z,13.36
2019-05-16T05:12:31.901Z,13.38
2019-05-16T05:15:01.750Z,13.31
2019-05-16T05:17:31.131Z,13.35
2019-05-16T05:20:01.224Z,13.37
2019-05-16T05:22:30.645Z,13.41
2019-05-16T05:25:00.891Z,13.34
2019-05-16T05:27:31.372Z,13.30
2019-05-16T05:30:01.248Z,13.17
2019-05-16T05:32:30.861Z,13.14
2019-05-16T05:35:00.360Z,13.08
2019-05-16T05:37:29.943Z,13.08
2019-05-16T05:39:59.928Z,13.08
2019-05-16T05:42:30.593Z,13.13
2019-05-16T05:45:00.426Z,13.16
2019-05-16T05:47:30.729Z,13.21
2019-05-16T05:50:00.764Z,13.29
2019-05-16T05:52:30.518Z,13.32
2019-05-16T05:55:00.629Z,13.36
2019-05-16T05:57:30.221Z,13.42
2019-05-16T06:00:00.513Z,13.50
2019-05-16T06:02:31.086Z,13.57
2019-05-16T06:05:00.452Z,13.60
2019-05-16T06:07:30.126Z,13.66
2019-05-16T06:10:00.441Z,13.72
2019-05-16T06:12:30.939Z,13.77
2019-05-16T06:15:07.491Z,13.84
2019-05-16T06:17:31.347Z,13.99
2019-05-16T06:20:00.453Z,13.99
2019-05-16T06:22:29.956Z,14.04
2019-05-16T06:25:01.090Z,14.13
2019-05-16T06:27:30.447Z,14.20
2019-05-16T06:30:00.523Z,14.30
2019-05-16T06:32:30.498Z,14.39
2019-05-16T06:35:00.814Z,14.46
2019-05-16T06:37:31.054Z,14.52
2019-05-16T06:40:00.800Z,14.49
2019-05-16T06:42:31.379Z,14.49
2019-05-16T06:45:01.014Z,14.54
2019-05-16T06:47:30.660Z,14.59
2019-05-16T06:50:00.430Z,14.64
2019-05-16T06:52:30.318Z,14.70
2019-05-16T06:55:00.748Z,14.72
2019-05-16T06:57:30.519Z,14.79
2019-05-16T07:00:00.659Z,14.84
2019-05-16T07:02:34.199Z,14.85
2019-05-16T07:05:01.318Z,14.89
2019-05-16T07:07:30.894Z,14.93
2019-05-16T07:10:04.325Z,15.01
2019-05-16T07:12:33.819Z,15.08
2019-05-16T07:15:02.435Z,15.16
2019-05-16T07:17:31.840Z,15.23
2019-05-16T07:20:01.124Z,15.25
2019-05-16T07:22:31.788Z,15.36
2019-05-16T07:25:02.304Z,15.42
2019-05-16T07:27:31.806Z,15.49
2019-05-16T07:30:01.556Z,15.50
2019-05-16T07:32:32.450Z,15.52
2019-05-16T07:35:02.766Z,15.59
2019-05-16T07:37:32.280Z,15.71
2019-05-16T07:40:16.219Z,15.81
2019-05-16T07:42:32.541Z,15.93
2019-05-16T07:45:01.949Z,16.03
2019-05-16T07:47:31.414Z,16.09
2019-05-16T07:50:00.724Z,16.13
2019-05-16T07:52:35.810Z,16.17
2019-05-16T07:55:03.985Z,16.16
2019-05-16T07:57:32.203Z,16.15
2019-05-16T08:00:01.360Z,16.20
2019-05-16T08:02:31.297Z,16.24
2019-05-16T08:05:01.210Z,16.29
2019-05-16T08:07:33.527Z,16.32
2019-05-16T08:10:01.369Z,16.29
2019-05-16T08:12:33.012Z,16.32
2019-05-16T08:15:02.053Z,16.37
2019-05-16T08:17:33.055Z,16.45
2019-05-16T08:20:02.313Z,16.49
2019-05-16T08:22:31.536Z,16.49
2019-05-16T08:25:00.823Z,16.46
2019-05-16T08:27:31.149Z,16.50
2019-05-16T08:32:31.499Z,16.56
2019-05-16T08:35:01.390Z,16.59
2019-05-16T08:37:38.504Z,16.61
2019-05-16T08:40:02.426Z,16.62
2019-05-16T08:42:32.706Z,16.68
2019-05-16T08:45:02.290Z,16.72
2019-05-16T08:47:32.400Z,16.79
2019-05-16T08:50:01.668Z,16.83
2019-05-16T08:52:31.692Z,16.90
2019-05-16T08:55:03.459Z,16.94
2019-05-16T08:57:33.598Z,17.02
2019-05-16T09:00:02.722Z,17.06
2019-05-16T09:02:36.436Z,17.09
2019-05-16T09:05:04.960Z,17.11
2019-05-16T09:07:33.978Z,17.03
2019-05-16T09:10:03.274Z,17.05
2019-05-16T09:10:41.850Z,16.52
2019-05-16T09:12:32.420Z,17.08
2019-05-16T09:15:01.711Z,17.12
2019-05-16T09:17:30.923Z,17.17
2019-05-16T09:20:00.067Z,17.19
2019-05-16T09:22:29.418Z,17.25
2019-05-16T09:24:58.984Z,17.28
2019-05-16T09:27:28.366Z,17.40
2019-05-16T09:29:58.033Z,17.41
2019-05-16T09:32:28.149Z,17.46
2019-05-16T09:34:57.798Z,17.49
2019-05-16T09:37:27.444Z,17.43
2019-05-16T09:39:57.330Z,17.43
2019-05-16T09:42:27.816Z,17.41
2019-05-16T09:44:58.005Z,17.47
2019-05-16T09:47:28.651Z,17.50
2019-05-16T09:49:59.009Z,17.54
2019-05-16T09:52:28.633Z,17.55
2019-05-16T09:54:57.981Z,17.56
2019-05-16T09:57:28.012Z,17.58
2019-05-16T09:59:57.373Z,17.57
2019-05-16T10:02:27.410Z,17.60
2019-05-16T10:04:57.943Z,17.66
2019-05-16T10:07:28.397Z,17.69
2019-05-16T10:09:58.026Z,17.70
2019-05-16T10:12:27.127Z,17.76
2019-05-16T10:14:59.690Z,17.77
2019-05-16T10:17:28.378Z,17.79
2019-05-16T10:20:00.085Z,17.83
2019-05-16T10:22:28.337Z,17.84
2019-05-16T10:24:57.494Z,17.83
2019-05-16T10:27:26.867Z,17.77
2019-05-16T10:30:00.576Z,17.74
2019-05-16T10:32:27.476Z,17.78
2019-05-16T10:34:57.290Z,17.71
2019-05-16T10:37:26.974Z,17.73
2019-05-16T10:39:59.832Z,17.74
2019-05-16T10:42:29.190Z,17.78
2019-05-16T10:44:58.947Z,17.83
2019-05-16T10:47:31.128Z,17.94
2019-05-16T10:49:59.173Z,17.99
2019-05-16T10:52:28.233Z,18.10
2019-05-16T10:55:02.028Z,18.18
2019-05-16T10:57:30.024Z,18.18
2019-05-16T11:00:09.169Z,18.19
2019-05-16T11:02:30.755Z,18.23
2019-05-16T11:05:21.783Z,18.22
2019-05-16T11:07:30.834Z,18.24
2019-05-16T11:10:03.515Z,18.28
2019-05-16T11:12:46.082Z,18.38
2019-05-16T11:15:02.956Z,18.67
2019-05-16T11:17:32.270Z,19.40
2019-05-16T11:20:01.434Z,20.68
2019-05-16T11:22:30.906Z,22.16
2019-05-16T11:25:00.473Z,23.37
2019-05-16T11:27:29.718Z,23.91
2019-05-16T11:29:58.864Z,23.49
2019-05-16T11:32:29.726Z,22.79
2019-05-16T11:34:58.964Z,22.16
2019-05-16T11:37:28.269Z,21.79
2019-05-16T11:39:58.016Z,21.39
2019-05-16T11:42:28.022Z,21.32
2019-05-16T11:44:58.458Z,21.65
2019-05-16T11:47:27.748Z,22.68
2019-05-16T11:49:57.147Z,24.30
2019-05-16T11:52:26.455Z,25.86
2019-05-16T11:54:57.198Z,27.16
2019-05-16T11:57:26.843Z,28.62
2019-05-16T11:59:56.838Z,29.71
2019-05-16T12:02:27.814Z,30.98
2019-05-16T12:04:57.899Z,31.74
2019-05-16T12:07:34.108Z,32.93
2019-05-16T12:10:02.893Z,33.39
2019-05-16T12:12:30.835Z,33.83
2019-05-16T12:14:59.414Z,36.11
2019-05-16T12:17:28.865Z,34.52
2019-05-16T12:19:57.887Z,34.57
2019-05-16T12:22:26.907Z,35.40
2019-05-16T12:24:57.528Z,36.00
2019-05-16T12:27:32.974Z,36.85
2019-05-16T12:29:59.210Z,37.06
2019-05-16T12:32:28.405Z,37.36
2019-05-16T12:34:57.942Z,37.73
2019-05-16T12:37:27.657Z,38.23
2019-05-16T12:39:57.340Z,38.21
2019-05-16T12:42:27.321Z,38.61
2019-05-16T12:44:57.050Z,38.74
2019-05-16T12:47:26.085Z,38.96
2019-05-16T12:49:56.656Z,39.19
2019-05-16T12:52:27.055Z,39.05
2019-05-16T12:54:56.964Z,39.06
2019-05-16T12:57:27.936Z,37.96
2019-05-16T12:59:58.162Z,36.71
2019-05-16T13:02:29.191Z,35.06
2019-05-16T13:04:58.292Z,33.13
2019-05-16T13:07:27.452Z,31.89
2019-05-16T13:09:56.632Z,31.32
2019-05-16T13:12:27.102Z,30.63
2019-05-16T13:14:56.283Z,30.17
2019-05-16T13:17:27.510Z,29.80
2019-05-16T13:19:57.563Z,30.41
2019-05-16T13:22:27.726Z,31.45
2019-05-16T13:24:57.693Z,32.52
2019-05-16T13:27:27.661Z,33.71
2019-05-16T13:29:58.071Z,34.68
2019-05-16T13:32:28.376Z,35.33
2019-05-16T13:34:59.166Z,35.72
2019-05-16T13:37:28.440Z,36.02
2019-05-16T13:39:57.625Z,36.49
2019-05-16T13:42:27.278Z,36.87
2019-05-16T13:44:57.755Z,36.35
2019-05-16T13:47:27.069Z,36.23
2019-05-16T13:49:56.202Z,35.65
2019-05-16T13:52:28.316Z,35.03
2019-05-16T13:54:56.449Z,33.89
2019-05-16T13:57:28.308Z,32.14
2019-05-16T13:59:56.851Z,31.20
2019-05-16T14:02:26.686Z,31.92
2019-05-16T14:04:56.911Z,32.73
2019-05-16T14:07:26.054Z,33.71
2019-05-16T14:09:57.730Z,34.17
2019-05-16T14:12:26.804Z,33.19
2019-05-16T14:14:56.600Z,30.87
2019-05-16T14:17:27.520Z,28.67
2019-05-16T14:19:57.491Z,27.10
2019-05-16T14:22:27.791Z,25.94
2019-05-16T14:24:58.005Z,25.69
2019-05-16T14:27:27.325Z,26.44
2019-05-16T14:29:57.790Z,27.50
2019-05-16T14:32:28.037Z,28.73
2019-05-16T14:34:58.894Z,30.37
2019-05-16T14:37:28.515Z,30.77
2019-05-16T14:40:01.319Z,31.63
2019-05-16T14:42:29.395Z,32.41
2019-05-16T14:45:09.952Z,33.16
2019-05-16T14:47:30.612Z,33.45
2019-05-16T14:49:59.632Z,33.70
2019-05-16T14:52:28.932Z,34.24
2019-05-16T14:54:57.708Z,34.57
2019-05-16T14:57:27.484Z,34.90
2019-05-16T14:59:56.644Z,34.77
2019-05-16T15:02:27.472Z,34.76
2019-05-16T15:04:56.953Z,34.94
2019-05-16T15:07:27.718Z,35.09
2019-05-16T15:09:56.985Z,35.01
2019-05-16T15:12:26.857Z,34.75
2019-05-16T15:14:57.276Z,34.31
2019-05-16T15:17:27.693Z,33.39
2019-05-16T15:19:57.305Z,31.14
2019-05-16T15:22:27.295Z,28.84
2019-05-16T15:24:59.345Z,26.95
2019-05-16T15:27:27.674Z,25.52
2019-05-16T15:29:57.685Z,24.22
2019-05-16T15:32:31.567Z,23.28
2019-05-16T15:34:58.298Z,22.53
2019-05-16T15:37:27.615Z,21.89
2019-05-16T15:39:57.208Z,21.27
2019-05-16T15:42:27.771Z,20.72
2019-05-16T15:44:57.135Z,20.29
2019-05-16T15:47:27.775Z,19.91
2019-05-16T15:49:59.814Z,19.62
2019-05-16T15:52:29.255Z,19.33
2019-05-16T15:54:59.363Z,19.08
2019-05-16T15:57:30.945Z,18.79
2019-05-16T15:59:59.674Z,18.59
2019-05-16T16:02:29.231Z,18.44
2019-05-16T16:04:58.533Z,18.24
2019-05-16T16:07:27.664Z,18.15
2019-05-16T16:09:57.684Z,18.06
2019-05-16T16:12:27.334Z,17.94
2019-05-16T16:14:57.337Z,17.84
2019-05-16T16:17:29.175Z,17.75
2019-05-16T16:19:58.174Z,17.60
2019-05-16T16:22:27.959Z,17.49
2019-05-16T16:24:57.551Z,17.36
2019-05-16T16:27:27.487Z,17.26
2019-05-16T16:29:57.172Z,17.18
2019-05-16T16:32:26.977Z,17.18
2019-05-16T16:34:57.513Z,17.23
2019-05-16T16:37:27.515Z,17.32
2019-05-16T16:39:57.606Z,17.32
2019-05-16T16:42:27.291Z,17.33
2019-05-16T16:44:57.014Z,17.32
2019-05-16T16:47:26.965Z,17.34
2019-05-16T16:49:59.271Z,17.36
2019-05-16T16:52:27.801Z,17.33
2019-05-16T16:54:57.359Z,17.24
2019-05-16T16:57:27.774Z,17.18
2019-05-16T16:59:56.910Z,17.07
2019-05-16T17:02:27.846Z,16.93
2019-05-16T17:05:01.621Z,16.77
2019-05-16T17:07:29.278Z,16.59
2019-05-16T17:09:58.523Z,16.37
2019-05-16T17:12:27.900Z,16.23
2019-05-16T17:14:57.145Z,16.01
2019-05-16T17:17:26.657Z,15.85
2019-05-16T17:19:56.715Z,15.74
2019-05-16T17:22:26.577Z,15.59
2019-05-16T17:24:56.656Z,15.46
2019-05-16T17:27:26.843Z,15.34
2019-05-16T17:29:57.315Z,15.28
2019-05-16T17:32:27.646Z,15.16
2019-05-16T17:34:56.654Z,15.07
2019-05-16T17:37:26.711Z,14.94
2019-05-16T17:39:56.952Z,14.86
2019-05-16T17:42:27.165Z,14.76
2019-05-16T17:44:56.817Z,14.72
2019-05-16T17:47:26.420Z,14.63
2019-05-16T17:49:55.609Z,14.58
2019-05-16T17:52:27.180Z,14.59
2019-05-16T17:54:57.336Z,14.51
2019-05-16T17:57:27.536Z,14.48
2019-05-16T17:59:57.422Z,14.42
2019-05-16T18:02:28.208Z,14.31
2019-05-16T18:04:57.333Z,14.22
2019-05-16T18:07:27.071Z,14.18
2019-05-16T18:09:56.760Z,14.16
2019-05-16T18:12:27.568Z,14.11
2019-05-16T18:14:57.205Z,14.05
2019-05-16T18:17:26.899Z,13.98
2019-05-16T18:19:57.132Z,13.87
2019-05-16T18:22:26.593Z,13.79
2019-05-16T18:24:57.882Z,13.73
2019-05-16T18:27:27.324Z,13.66
2019-05-16T18:29:56.809Z,13.61
2019-05-16T18:32:26.615Z,13.52
2019-05-16T18:34:56.432Z,13.44
2019-05-16T18:37:26.607Z,13.44
2019-05-16T18:39:57.345Z,13.42
2019-05-16T18:42:27.622Z,13.34
2019-05-16T18:44:56.785Z,13.31
2019-05-16T18:47:27.168Z,13.33
2019-05-16T18:49:57.347Z,13.29
2019-05-16T18:52:26.584Z,13.25
2019-05-16T18:54:57.627Z,13.21
2019-05-16T18:57:27.160Z,13.22
2019-05-16T18:59:56.846Z,13.21
2019-05-16T19:02:27.695Z,13.21
2019-05-16T19:04:57.776Z,13.17
2019-05-16T19:07:27.425Z,13.16
2019-05-16T19:09:56.798Z,13.13
2019-05-16T19:12:26.270Z,13.13
2019-05-16T19:14:57.158Z,13.10
2019-05-16T19:17:27.581Z,13.01
2019-05-16T19:19:57.055Z,13.04
2019-05-16T19:22:26.599Z,13.01
2019-05-16T19:24:57.417Z,12.98
2019-05-16T19:27:26.938Z,12.91
2019-05-16T19:29:56.882Z,12.88
2019-05-16T19:32:26.063Z,12.83
2019-05-16T19:34:57.264Z,12.80
2019-05-16T19:37:26.090Z,12.82
2019-05-16T19:39:56.938Z,12.74
2019-05-16T19:42:29.747Z,12.70
2019-05-16T19:44:57.835Z,12.63
2019-05-16T19:47:34.957Z,12.64
2019-05-16T19:49:58.225Z,12.58
2019-05-16T19:52:27.670Z,12.53
2019-05-16T19:54:56.730Z,12.53
2019-05-16T19:57:26.613Z,12.51
2019-05-16T19:59:58.799Z,12.46
2019-05-16T20:02:28.622Z,12.41
2019-05-16T20:04:57.896Z,12.35
2019-05-16T20:07:27.115Z,12.35
2019-05-16T20:09:56.565Z,12.29
2019-05-16T20:12:26.275Z,12.24
2019-05-16T20:15:07.609Z,12.17
2019-05-16T20:17:27.032Z,12.15
2019-05-16T20:19:56.494Z,12.15
2019-05-16T20:22:26.166Z,12.02
2019-05-16T20:24:56.317Z,12.09
2019-05-16T20:27:27.449Z,12.09
2019-05-16T20:29:59.431Z,12.05
2019-05-16T20:32:28.908Z,11.99
2019-05-16T20:34:58.425Z,11.99
2019-05-16T20:37:28.030Z,11.95
2019-05-16T20:39:58.130Z,11.95
2019-05-16T20:42:27.449Z,11.94
2019-05-16T20:44:57.687Z,11.93
2019-05-16T20:47:27.251Z,11.86
2019-05-16T20:49:57.792Z,11.86
2019-05-16T20:52:28.066Z,11.80
2019-05-16T20:54:58.078Z,11.80
2019-05-16T20:57:27.404Z,11.76
2019-05-16T20:59:57.565Z,11.71
2019-05-16T21:02:28.697Z,11.68
2019-05-16T21:04:58.071Z,11.66
2019-05-16T21:07:27.237Z,11.57
2019-05-16T21:09:58.901Z,11.57
2019-05-16T21:12:27.999Z,11.55
2019-05-16T21:14:58.624Z,11.51
2019-05-16T21:17:28.422Z,11.51
2019-05-16T21:19:58.078Z,11.49
2019-05-16T21:22:27.505Z,11.39
2019-05-16T21:24:57.228Z,11.39
2019-05-16T21:27:26.747Z,11.35
2019-05-16T21:29:56.731Z,11.39
2019-05-16T21:32:26.999Z,11.39
2019-05-16T21:34:56.794Z,11.36
2019-05-16T21:37:26.933Z,11.31
2019-05-16T21:39:59.473Z,11.29
2019-05-16T21:42:27.840Z,11.29
2019-05-16T21:44:57.528Z,11.25
2019-05-16T21:47:27.705Z,11.20
2019-05-16T21:49:57.681Z,11.13
2019-05-16T21:52:28.855Z,11.11
2019-05-16T21:54:58.595Z,11.11
2019-05-16T21:57:27.930Z,11.07
2019-05-16T21:59:57.338Z,11.07
2019-05-16T22:02:27.068Z,11.04
2019-05-16T22:04:57.008Z,11.03
2019-05-16T22:07:33.415Z,10.97
2019-05-16T22:09:59.181Z,10.94
2019-05-16T22:12:28.670Z,10.92
2019-05-16T22:14:58.446Z,10.88
2019-05-16T22:17:28.742Z,10.85
2019-05-16T22:19:58.348Z,10.83
2019-05-16T22:22:30.019Z,10.80
2019-05-16T22:24:59.924Z,10.77
2019-05-16T22:27:29.400Z,10.75
2019-05-16T22:29:58.623Z,10.74
2019-05-16T22:32:28.845Z,10.72
2019-05-16T22:34:59.829Z,10.68
2019-05-16T22:37:29.283Z,10.67
2019-05-16T22:39:59.750Z,10.61
2019-05-16T22:42:29.499Z,10.61
2019-05-16T22:44:59.000Z,10.61
2019-05-16T22:47:29.021Z,10.59
2019-05-16T22:49:58.940Z,10.56
2019-05-16T22:52:28.858Z,10.56
2019-05-16T22:54:58.158Z,10.52
2019-05-16T22:57:27.940Z,10.52
2019-05-16T22:59:59.087Z,10.50
2019-05-16T23:02:29.299Z,10.51
2019-05-16T23:04:58.736Z,10.52
2019-05-16T23:07:28.626Z,10.48
2019-05-16T23:09:58.774Z,10.46
2019-05-16T23:12:28.711Z,10.39
2019-05-16T23:14:58.009Z,10.39
2019-05-16T23:17:28.214Z,10.37
2019-05-16T23:19:57.605Z,10.32
2019-05-16T23:22:27.888Z,10.27
2019-05-16T23:24:57.323Z,10.25
2019-05-16T23:27:27.448Z,10.23
2019-05-16T23:29:56.889Z,10.22
2019-05-16T23:32:27.044Z,10.18
2019-05-16T23:34:57.240Z,10.14
2019-05-16T23:37:27.542Z,10.12
2019-05-16T23:39:57.238Z,10.06
2019-05-16T23:42:29.247Z,10.06
2019-05-16T23:44:59.006Z,9.96
2019-05-16T23:47:28.637Z,9.96
2019-05-16T23:49:57.882Z,9.88
2019-05-16T23:52:27.460Z,9.88
2019-05-16T23:54:57.032Z,9.81
2019-05-16T23:57:26.892Z,9.75
2019-05-16T23:59:57.807Z,9.72
